To NAV CANADA Home Page Login to a new session Search on AWWS site Feedback and Comments Disclaimer Vers la page française équivalente Tips FAQ What's new on the site To the Forecasts and Observations / NOTAM section To "File a Flight Plan" website Publications and other links Update of the User's profile FIC Telephone Numbers My Weather Data Folder Route Weather Data Regional Weather Data Local Weather Data To the Forecasts and Observations / NOTAM section
Request Generated 08/25/2016 at 20:09:01 UTC . Weather information available at that time is displayed.

METAR/TAF

YARMOUTH/NS    

METAR CYQI 252000Z 22013G23KT 12SM FEW025 FEW180 OVC250 22/18 A3005
RMK SC1AC1CI8 SC TR AC TR SLP178 DENSITY ALT 800FT=
METAR CYQI 251900Z 23015G23KT 12SM FEW025 FEW180 OVC250 22/18 A3008
RMK SC1AC1CI8 SC TR AC TR SLP187 DENSITY ALT 800FT=
METAR CYQI 251800Z 23015G24KT 10SM FEW015 FEW180 OVC250 23/19 A3008
RMK SC1AC1CI8 SC TR AC TR SLP187 DENSITY ALT 800FT=

TAF CYQI 251738Z 2518/2606 22015G25KT P6SM FEW015
BECMG 2522/2524 19010KT
FM260300 20012KT 1/2SM FG VV002
RMK NXT FCST BY 260000Z=
Your time UTC time
Weather data provided by Environment Canada and NAV CANADA